sensor_id;sensor_type;location;lat;lon;timestamp;P1;durP1;ratioP1;P2;durP2;ratioP2
35677;SDS011;21791;42.828;74.582;2023-03-05T00:01:50;8.93;;;2.75;;
35677;SDS011;21791;42.828;74.582;2023-03-05T00:04:17;8.13;;;2.60;;
35677;SDS011;21791;42.828;74.582;2023-03-05T00:06:43;9.55;;;2.72;;
35677;SDS011;21791;42.828;74.582;2023-03-05T00:09:10;6.90;;;2.40;;
35677;SDS011;21791;42.828;74.582;2023-03-05T00:11:36;9.32;;;3.20;;
35677;SDS011;21791;42.828;74.582;2023-03-05T00:14:03;10.65;;;2.78;;
35677;SDS011;21791;42.828;74.582;2023-03-05T00:16:30;5.80;;;2.45;;
35677;SDS011;21791;42.828;74.582;2023-03-05T00:18:58;5.60;;;2.53;;
35677;SDS011;21791;42.828;74.582;2023-03-05T00:21:26;6.18;;;2.22;;
35677;SDS011;21791;42.828;74.582;2023-03-05T00:23:56;10.45;;;3.10;;
35677;SDS011;21791;42.828;74.582;2023-03-05T00:26:26;9.98;;;3.08;;
35677;SDS011;21791;42.828;74.582;2023-03-05T00:28:54;7.78;;;2.70;;
35677;SDS011;21791;42.828;74.582;2023-03-05T00:31:23;15.75;;;3.03;;
35677;SDS011;21791;42.828;74.582;2023-03-05T00:33:56;11.98;;;3.42;;
35677;SDS011;21791;42.828;74.582;2023-03-05T00:36:25;12.75;;;2.53;;
35677;SDS011;21791;42.828;74.582;2023-03-05T00:38:52;8.32;;;3.22;;
35677;SDS011;21791;42.828;74.582;2023-03-05T00:41:19;8.75;;;2.45;;
35677;SDS011;21791;42.828;74.582;2023-03-05T00:43:48;8.57;;;2.47;;
35677;SDS011;21791;42.828;74.582;2023-03-05T00:46:15;9.18;;;2.38;;
35677;SDS011;21791;42.828;74.582;2023-03-05T00:48:42;6.32;;;2.10;;
35677;SDS011;21791;42.828;74.582;2023-03-05T00:51:09;7.13;;;2.25;;
35677;SDS011;21791;42.828;74.582;2023-03-05T00:53:36;6.55;;;2.22;;
35677;SDS011;21791;42.828;74.582;2023-03-05T00:56:02;8.85;;;2.08;;
35677;SDS011;21791;42.828;74.582;2023-03-05T00:58:29;9.95;;;2.45;;
35677;SDS011;21791;42.828;74.582;2023-03-05T01:00:56;13.68;;;2.47;;
35677;SDS011;21791;42.828;74.582;2023-03-05T01:03:24;7.63;;;2.78;;
35677;SDS011;21791;42.828;74.582;2023-03-05T01:05:51;7.18;;;2.35;;
35677;SDS011;21791;42.828;74.582;2023-03-05T01:08:17;6.70;;;2.33;;
35677;SDS011;21791;42.828;74.582;2023-03-05T01:10:44;8.90;;;2.58;;
35677;SDS011;21791;42.828;74.582;2023-03-05T01:13:10;14.07;;;3.30;;
35677;SDS011;21791;42.828;74.582;2023-03-05T01:15:37;11.27;;;3.05;;
35677;SDS011;21791;42.828;74.582;2023-03-05T01:18:03;9.32;;;2.75;;
35677;SDS011;21791;42.828;74.582;2023-03-05T01:20:30;11.95;;;3.10;;
35677;SDS011;21791;42.828;74.582;2023-03-05T01:22:57;10.05;;;2.80;;
35677;SDS011;21791;42.828;74.582;2023-03-05T01:25:24;10.55;;;2.72;;
35677;SDS011;21791;42.828;74.582;2023-03-05T01:27:51;13.70;;;2.83;;
35677;SDS011;21791;42.828;74.582;2023-03-05T01:30:18;14.70;;;3.13;;
35677;SDS011;21791;42.828;74.582;2023-03-05T01:32:45;7.85;;;2.22;;
35677;SDS011;21791;42.828;74.582;2023-03-05T01:35:15;8.90;;;2.33;;
35677;SDS011;21791;42.828;74.582;2023-03-05T01:37:44;11.68;;;2.67;;
35677;SDS011;21791;42.828;74.582;2023-03-05T01:40:11;9.15;;;2.67;;
35677;SDS011;21791;42.828;74.582;2023-03-05T01:42:43;6.43;;;2.28;;
35677;SDS011;21791;42.828;74.582;2023-03-05T01:45:15;6.22;;;2.40;;
35677;SDS011;21791;42.828;74.582;2023-03-05T01:47:45;13.35;;;2.80;;
35677;SDS011;21791;42.828;74.582;2023-03-05T01:50:13;9.65;;;2.25;;
35677;SDS011;21791;42.828;74.582;2023-03-05T01:52:45;9.15;;;2.20;;
35677;SDS011;21791;42.828;74.582;2023-03-05T01:55:20;11.23;;;2.50;;
35677;SDS011;21791;42.828;74.582;2023-03-05T01:57:50;6.82;;;2.45;;
35677;SDS011;21791;42.828;74.582;2023-03-05T02:00:22;11.10;;;3.38;;
35677;SDS011;21791;42.828;74.582;2023-03-05T02:02:52;5.82;;;2.08;;
35677;SDS011;21791;42.828;74.582;2023-03-05T02:05:26;6.10;;;2.50;;
35677;SDS011;21791;42.828;74.582;2023-03-05T02:07:57;11.38;;;2.30;;
35677;SDS011;21791;42.828;74.582;2023-03-05T02:10:26;7.07;;;2.67;;
35677;SDS011;21791;42.828;74.582;2023-03-05T02:12:59;6.13;;;2.42;;
35677;SDS011;21791;42.828;74.582;2023-03-05T02:15:28;7.85;;;2.78;;
35677;SDS011;21791;42.828;74.582;2023-03-05T02:17:56;8.82;;;2.42;;
35677;SDS011;21791;42.828;74.582;2023-03-05T02:20:24;9.35;;;2.58;;
35677;SDS011;21791;42.828;74.582;2023-03-05T02:22:56;11.95;;;2.75;;
35677;SDS011;21791;42.828;74.582;2023-03-05T02:25:24;16.80;;;3.45;;
35677;SDS011;21791;42.828;74.582;2023-03-05T02:28:05;8.88;;;2.42;;
35677;SDS011;21791;42.828;74.582;2023-03-05T02:30:38;9.32;;;2.55;;
35677;SDS011;21791;42.828;74.582;2023-03-05T02:33:04;11.35;;;2.83;;
35677;SDS011;21791;42.828;74.582;2023-03-05T02:35:31;7.68;;;2.85;;
35677;SDS011;21791;42.828;74.582;2023-03-05T02:37:58;13.95;;;2.92;;
35677;SDS011;21791;42.828;74.582;2023-03-05T02:40:24;12.27;;;3.25;;
35677;SDS011;21791;42.828;74.582;2023-03-05T02:42:52;10.93;;;3.47;;
35677;SDS011;21791;42.828;74.582;2023-03-05T02:45:19;16.25;;;3.80;;
35677;SDS011;21791;42.828;74.582;2023-03-05T02:47:45;10.75;;;3.10;;
35677;SDS011;21791;42.828;74.582;2023-03-05T02:50:12;8.27;;;2.55;;
35677;SDS011;21791;42.828;74.582;2023-03-05T02:52:38;12.35;;;3.25;;
35677;SDS011;21791;42.828;74.582;2023-03-05T02:55:05;10.25;;;3.08;;
35677;SDS011;21791;42.828;74.582;2023-03-05T02:57:31;8.65;;;3.03;;
35677;SDS011;21791;42.828;74.582;2023-03-05T02:59:57;16.67;;;3.17;;
35677;SDS011;21791;42.828;74.582;2023-03-05T03:02:24;13.40;;;3.60;;
35677;SDS011;21791;42.828;74.582;2023-03-05T03:04:50;14.65;;;3.67;;
35677;SDS011;21791;42.828;74.582;2023-03-05T03:07:17;15.07;;;3.72;;
35677;SDS011;21791;42.828;74.582;2023-03-05T03:09:43;13.98;;;3.22;;
35677;SDS011;21791;42.828;74.582;2023-03-05T03:12:10;8.30;;;2.80;;
35677;SDS011;21791;42.828;74.582;2023-03-05T03:14:37;7.53;;;3.28;;
35677;SDS011;21791;42.828;74.582;2023-03-05T03:17:06;6.63;;;3.03;;
35677;SDS011;21791;42.828;74.582;2023-03-05T03:19:34;9.20;;;2.88;;
35677;SDS011;21791;42.828;74.582;2023-03-05T03:22:01;8.15;;;3.20;;
35677;SDS011;21791;42.828;74.582;2023-03-05T03:24:31;11.00;;;3.38;;
35677;SDS011;21791;42.828;74.582;2023-03-05T03:26:59;8.18;;;3.90;;
35677;SDS011;21791;42.828;74.582;2023-03-05T03:29:26;12.30;;;3.22;;
35677;SDS011;21791;42.828;74.582;2023-03-05T03:31:52;14.75;;;5.47;;
35677;SDS011;21791;42.828;74.582;2023-03-05T03:34:19;12.15;;;5.00;;
35677;SDS011;21791;42.828;74.582;2023-03-05T03:36:46;10.27;;;3.30;;
35677;SDS011;21791;42.828;74.582;2023-03-05T03:39:14;13.10;;;4.10;;
35677;SDS011;21791;42.828;74.582;2023-03-05T03:41:42;12.15;;;6.13;;
35677;SDS011;21791;42.828;74.582;2023-03-05T03:44:10;15.80;;;6.95;;
35677;SDS011;21791;42.828;74.582;2023-03-05T03:46:38;8.07;;;4.07;;
35677;SDS011;21791;42.828;74.582;2023-03-05T03:49:06;11.40;;;4.63;;
35677;SDS011;21791;42.828;74.582;2023-03-05T03:54:23;13.77;;;4.72;;
35677;SDS011;21791;42.828;74.582;2023-03-05T03:56:49;12.98;;;4.93;;
35677;SDS011;21791;42.828;74.582;2023-03-05T03:59:16;18.38;;;5.47;;
35677;SDS011;21791;42.828;74.582;2023-03-05T04:01:43;18.60;;;4.30;;
35677;SDS011;21791;42.828;74.582;2023-03-05T04:04:11;16.13;;;4.55;;
35677;SDS011;21791;42.828;74.582;2023-03-05T04:06:38;16.60;;;4.20;;
35677;SDS011;21791;42.828;74.582;2023-03-05T04:09:05;18.50;;;5.45;;
35677;SDS011;21791;42.828;74.582;2023-03-05T04:11:33;13.43;;;5.93;;
35677;SDS011;21791;42.828;74.582;2023-03-05T04:14:00;12.35;;;3.83;;
35677;SDS011;21791;42.828;74.582;2023-03-05T04:16:27;12.43;;;4.20;;
35677;SDS011;21791;42.828;74.582;2023-03-05T04:18:54;20.70;;;8.98;;
35677;SDS011;21791;42.828;74.582;2023-03-05T04:21:21;13.80;;;7.03;;
35677;SDS011;21791;42.828;74.582;2023-03-05T04:23:47;23.17;;;7.38;;
35677;SDS011;21791;42.828;74.582;2023-03-05T04:26:14;24.42;;;6.18;;
35677;SDS011;21791;42.828;74.582;2023-03-05T04:28:40;17.67;;;4.85;;
35677;SDS011;21791;42.828;74.582;2023-03-05T04:31:07;16.80;;;4.55;;
35677;SDS011;21791;42.828;74.582;2023-03-05T04:33:33;16.33;;;4.28;;
35677;SDS011;21791;42.828;74.582;2023-03-05T04:36:02;11.25;;;3.85;;
35677;SDS011;21791;42.828;74.582;2023-03-05T04:38:29;14.30;;;4.70;;
35677;SDS011;21791;42.828;74.582;2023-03-05T04:40:56;14.75;;;4.65;;
35677;SDS011;21791;42.828;74.582;2023-03-05T04:43:22;15.93;;;5.07;;
35677;SDS011;21791;42.828;74.582;2023-03-05T04:45:48;13.50;;;5.50;;
35677;SDS011;21791;42.828;74.582;2023-03-05T04:48:15;12.93;;;4.85;;
35677;SDS011;21791;42.828;74.582;2023-03-05T04:50:41;12.52;;;4.57;;
35677;SDS011;21791;42.828;74.582;2023-03-05T04:53:08;16.02;;;4.47;;
35677;SDS011;21791;42.828;74.582;2023-03-05T04:55:34;16.35;;;4.63;;
35677;SDS011;21791;42.828;74.582;2023-03-05T04:58:01;16.95;;;4.70;;
35677;SDS011;21791;42.828;74.582;2023-03-05T05:00:27;13.88;;;4.97;;
35677;SDS011;21791;42.828;74.582;2023-03-05T05:02:54;12.85;;;4.40;;
35677;SDS011;21791;42.828;74.582;2023-03-05T05:05:22;14.60;;;5.50;;
35677;SDS011;21791;42.828;74.582;2023-03-05T05:07:59;17.90;;;5.78;;
35677;SDS011;21791;42.828;74.582;2023-03-05T05:10:25;13.18;;;4.90;;
35677;SDS011;21791;42.828;74.582;2023-03-05T05:12:52;15.63;;;5.65;;
35677;SDS011;21791;42.828;74.582;2023-03-05T05:15:19;18.75;;;6.57;;
35677;SDS011;21791;42.828;74.582;2023-03-05T05:17:46;19.40;;;7.07;;
35677;SDS011;21791;42.828;74.582;2023-03-05T05:20:14;14.25;;;5.00;;
35677;SDS011;21791;42.828;74.582;2023-03-05T05:22:41;14.30;;;5.30;;
35677;SDS011;21791;42.828;74.582;2023-03-05T05:25:08;20.27;;;6.05;;
35677;SDS011;21791;42.828;74.582;2023-03-05T05:27:35;16.40;;;4.55;;
35677;SDS011;21791;42.828;74.582;2023-03-05T05:30:03;11.60;;;4.70;;
35677;SDS011;21791;42.828;74.582;2023-03-05T05:32:31;16.85;;;4.25;;
35677;SDS011;21791;42.828;74.582;2023-03-05T05:34:58;15.10;;;4.07;;
35677;SDS011;21791;42.828;74.582;2023-03-05T05:37:25;12.90;;;3.67;;
35677;SDS011;21791;42.828;74.582;2023-03-05T05:39:52;17.05;;;4.00;;
35677;SDS011;21791;42.828;74.582;2023-03-05T05:42:22;33.45;;;4.80;;
35677;SDS011;21791;42.828;74.582;2023-03-05T05:44:53;16.17;;;4.18;;
35677;SDS011;21791;42.828;74.582;2023-03-05T05:47:20;11.05;;;3.70;;
35677;SDS011;21791;42.828;74.582;2023-03-05T05:49:46;9.90;;;3.17;;
35677;SDS011;21791;42.828;74.582;2023-03-05T05:52:12;11.38;;;3.75;;
35677;SDS011;21791;42.828;74.582;2023-03-05T05:54:39;9.27;;;3.63;;
35677;SDS011;21791;42.828;74.582;2023-03-05T05:57:06;13.95;;;3.65;;
35677;SDS011;21791;42.828;74.582;2023-03-05T05:59:32;9.48;;;2.60;;
35677;SDS011;21791;42.828;74.582;2023-03-05T06:01:59;11.27;;;3.53;;
35677;SDS011;21791;42.828;74.582;2023-03-05T06:04:25;14.05;;;3.58;;
35677;SDS011;21791;42.828;74.582;2023-03-05T06:06:52;10.13;;;4.25;;
35677;SDS011;21791;42.828;74.582;2023-03-05T06:09:19;11.88;;;3.58;;
35677;SDS011;21791;42.828;74.582;2023-03-05T06:11:45;12.23;;;3.80;;
35677;SDS011;21791;42.828;74.582;2023-03-05T06:14:12;11.70;;;3.72;;
35677;SDS011;21791;42.828;74.582;2023-03-05T06:16:39;14.73;;;3.78;;
35677;SDS011;21791;42.828;74.582;2023-03-05T06:19:07;10.13;;;3.30;;
35677;SDS011;21791;42.828;74.582;2023-03-05T06:21:36;9.98;;;3.17;;
35677;SDS011;21791;42.828;74.582;2023-03-05T06:24:02;9.48;;;3.05;;
35677;SDS011;21791;42.828;74.582;2023-03-05T06:26:30;10.63;;;3.03;;
35677;SDS011;21791;42.828;74.582;2023-03-05T06:28:56;148.07;;;17.00;;
35677;SDS011;21791;42.828;74.582;2023-03-05T06:31:24;108.55;;;13.60;;
35677;SDS011;21791;42.828;74.582;2023-03-05T06:33:56;86.30;;;11.13;;
35677;SDS011;21791;42.828;74.582;2023-03-05T06:36:26;77.90;;;10.43;;
35677;SDS011;21791;42.828;74.582;2023-03-05T06:38:54;76.15;;;8.43;;
35677;SDS011;21791;42.828;74.582;2023-03-05T06:41:26;26.90;;;6.18;;
35677;SDS011;21791;42.828;74.582;2023-03-05T06:43:54;47.45;;;7.15;;
35677;SDS011;21791;42.828;74.582;2023-03-05T06:46:26;29.80;;;5.68;;
35677;SDS011;21791;42.828;74.582;2023-03-05T06:48:55;25.67;;;6.53;;
35677;SDS011;21791;42.828;74.582;2023-03-05T06:51:24;26.77;;;6.45;;
35677;SDS011;21791;42.828;74.582;2023-03-05T06:54:01;18.48;;;6.03;;
35677;SDS011;21791;42.828;74.582;2023-03-05T06:56:39;14.13;;;6.47;;
35677;SDS011;21791;42.828;74.582;2023-03-05T06:59:07;25.40;;;6.30;;
35677;SDS011;21791;42.828;74.582;2023-03-05T07:01:33;20.65;;;6.40;;
35677;SDS011;21791;42.828;74.582;2023-03-05T07:04:00;21.42;;;6.00;;
35677;SDS011;21791;42.828;74.582;2023-03-05T07:06:27;25.48;;;6.53;;
35677;SDS011;21791;42.828;74.582;2023-03-05T07:09:00;16.95;;;5.95;;
35677;SDS011;21791;42.828;74.582;2023-03-05T07:11:28;22.08;;;6.95;;
35677;SDS011;21791;42.828;74.582;2023-03-05T07:13:55;13.63;;;6.63;;
35677;SDS011;21791;42.828;74.582;2023-03-05T07:16:23;21.70;;;7.18;;
35677;SDS011;21791;42.828;74.582;2023-03-05T07:18:52;17.00;;;6.90;;
35677;SDS011;21791;42.828;74.582;2023-03-05T07:21:21;14.57;;;5.88;;
35677;SDS011;21791;42.828;74.582;2023-03-05T07:23:52;20.25;;;6.22;;
35677;SDS011;21791;42.828;74.582;2023-03-05T07:26:19;16.48;;;6.07;;
35677;SDS011;21791;42.828;74.582;2023-03-05T07:28:46;22.80;;;6.53;;
35677;SDS011;21791;42.828;74.582;2023-03-05T07:31:14;19.77;;;9.75;;
35677;SDS011;21791;42.828;74.582;2023-03-05T07:33:43;16.27;;;6.30;;
35677;SDS011;21791;42.828;74.582;2023-03-05T07:36:14;17.13;;;6.80;;
35677;SDS011;21791;42.828;74.582;2023-03-05T07:38:41;14.00;;;6.55;;
35677;SDS011;21791;42.828;74.582;2023-03-05T07:41:09;19.00;;;6.60;;
35677;SDS011;21791;42.828;74.582;2023-03-05T07:43:37;18.25;;;6.70;;
35677;SDS011;21791;42.828;74.582;2023-03-05T07:46:07;20.83;;;8.45;;
35677;SDS011;21791;42.828;74.582;2023-03-05T07:48:37;19.50;;;7.68;;
35677;SDS011;21791;42.828;74.582;2023-03-05T07:51:05;17.42;;;6.80;;
35677;SDS011;21791;42.828;74.582;2023-03-05T07:53:33;15.40;;;7.07;;
35677;SDS011;21791;42.828;74.582;2023-03-05T07:55:59;19.90;;;6.97;;
35677;SDS011;21791;42.828;74.582;2023-03-05T07:58:26;16.50;;;6.68;;
35677;SDS011;21791;42.828;74.582;2023-03-05T08:00:54;21.17;;;7.30;;
35677;SDS011;21791;42.828;74.582;2023-03-05T08:03:21;15.25;;;6.47;;
35677;SDS011;21791;42.828;74.582;2023-03-05T08:05:47;13.07;;;7.20;;
35677;SDS011;21791;42.828;74.582;2023-03-05T08:08:14;19.70;;;7.13;;
35677;SDS011;21791;42.828;74.582;2023-03-05T08:10:40;17.45;;;7.68;;
35677;SDS011;21791;42.828;74.582;2023-03-05T08:13:07;18.02;;;8.60;;
35677;SDS011;21791;42.828;74.582;2023-03-05T08:15:35;15.82;;;7.13;;
35677;SDS011;21791;42.828;74.582;2023-03-05T08:18:02;19.05;;;7.78;;
35677;SDS011;21791;42.828;74.582;2023-03-05T08:20:29;18.77;;;8.25;;
35677;SDS011;21791;42.828;74.582;2023-03-05T08:22:59;11.52;;;6.70;;
35677;SDS011;21791;42.828;74.582;2023-03-05T08:25:27;15.50;;;7.82;;
35677;SDS011;21791;42.828;74.582;2023-03-05T08:27:54;17.30;;;7.65;;
35677;SDS011;21791;42.828;74.582;2023-03-05T08:30:21;13.35;;;7.55;;
35677;SDS011;21791;42.828;74.582;2023-03-05T08:32:54;17.27;;;7.70;;
35677;SDS011;21791;42.828;74.582;2023-03-05T08:35:22;14.80;;;7.05;;
35677;SDS011;21791;42.828;74.582;2023-03-05T08:37:48;16.75;;;7.55;;
35677;SDS011;21791;42.828;74.582;2023-03-05T08:40:15;20.05;;;6.97;;
35677;SDS011;21791;42.828;74.582;2023-03-05T08:42:42;18.40;;;7.40;;
35677;SDS011;21791;42.828;74.582;2023-03-05T08:45:09;18.05;;;8.30;;
35677;SDS011;21791;42.828;74.582;2023-03-05T08:47:36;14.43;;;7.57;;
35677;SDS011;21791;42.828;74.582;2023-03-05T08:50:03;18.50;;;8.45;;
35677;SDS011;21791;42.828;74.582;2023-03-05T08:52:30;14.90;;;7.60;;
35677;SDS011;21791;42.828;74.582;2023-03-05T08:54:57;11.13;;;7.13;;
35677;SDS011;21791;42.828;74.582;2023-03-05T08:57:23;15.25;;;7.80;;
35677;SDS011;21791;42.828;74.582;2023-03-05T08:59:49;16.48;;;6.75;;
35677;SDS011;21791;42.828;74.582;2023-03-05T09:02:16;12.63;;;6.40;;
35677;SDS011;21791;42.828;74.582;2023-03-05T09:04:42;14.65;;;6.95;;
35677;SDS011;21791;42.828;74.582;2023-03-05T09:07:09;19.00;;;7.85;;
35677;SDS011;21791;42.828;74.582;2023-03-05T09:09:37;13.43;;;7.72;;
35677;SDS011;21791;42.828;74.582;2023-03-05T09:12:03;13.55;;;8.10;;
35677;SDS011;21791;42.828;74.582;2023-03-05T09:14:30;15.98;;;7.32;;
35677;SDS011;21791;42.828;74.582;2023-03-05T09:16:57;15.02;;;8.23;;
35677;SDS011;21791;42.828;74.582;2023-03-05T09:19:23;13.02;;;7.60;;
35677;SDS011;21791;42.828;74.582;2023-03-05T09:21:51;17.00;;;8.77;;
35677;SDS011;21791;42.828;74.582;2023-03-05T09:24:18;12.57;;;7.07;;
35677;SDS011;21791;42.828;74.582;2023-03-05T09:26:44;14.18;;;6.60;;
35677;SDS011;21791;42.828;74.582;2023-03-05T09:29:11;11.40;;;6.70;;
35677;SDS011;21791;42.828;74.582;2023-03-05T09:31:37;20.60;;;7.10;;
35677;SDS011;21791;42.828;74.582;2023-03-05T09:34:04;17.35;;;7.70;;
35677;SDS011;21791;42.828;74.582;2023-03-05T09:36:33;15.80;;;7.57;;
35677;SDS011;21791;42.828;74.582;2023-03-05T09:39:00;12.70;;;6.45;;
35677;SDS011;21791;42.828;74.582;2023-03-05T09:47:07;12.93;;;7.88;;
35677;SDS011;21791;42.828;74.582;2023-03-05T09:50:03;11.90;;;7.40;;
35677;SDS011;21791;42.828;74.582;2023-03-05T09:55:24;15.60;;;7.60;;
35677;SDS011;21791;42.828;74.582;2023-03-05T09:57:51;21.98;;;8.68;;
35677;SDS011;21791;42.828;74.582;2023-03-05T10:03:17;16.48;;;8.00;;
35677;SDS011;21791;42.828;74.582;2023-03-05T10:06:14;15.68;;;7.50;;
35677;SDS011;21791;42.828;74.582;2023-03-05T10:14:32;16.52;;;7.18;;
35677;SDS011;21791;42.828;74.582;2023-03-05T10:20:06;13.07;;;7.60;;
35677;SDS011;21791;42.828;74.582;2023-03-05T10:28:13;14.05;;;6.80;;
35677;SDS011;21791;42.828;74.582;2023-03-05T10:33:42;14.38;;;8.18;;
35677;SDS011;21791;42.828;74.582;2023-03-05T10:42:32;20.35;;;10.25;;
35677;SDS011;21791;42.828;74.582;2023-03-05T10:45:12;18.02;;;8.57;;
35677;SDS011;21791;42.828;74.582;2023-03-05T10:50:15;15.10;;;6.90;;
35677;SDS011;21791;42.828;74.582;2023-03-05T10:55:35;11.73;;;5.85;;
35677;SDS011;21791;42.828;74.582;2023-03-05T10:58:07;14.05;;;6.75;;
35677;SDS011;21791;42.828;74.582;2023-03-05T11:00:37;11.50;;;6.38;;
35677;SDS011;21791;42.828;74.582;2023-03-05T11:03:06;14.70;;;6.85;;
35677;SDS011;21791;42.828;74.582;2023-03-05T11:05:42;13.93;;;6.57;;
35677;SDS011;21791;42.828;74.582;2023-03-05T11:13:40;11.60;;;6.10;;
35677;SDS011;21791;42.828;74.582;2023-03-05T11:16:27;12.38;;;6.22;;
35677;SDS011;21791;42.828;74.582;2023-03-05T11:19:22;9.75;;;5.90;;
35677;SDS011;21791;42.828;74.582;2023-03-05T11:27:38;16.13;;;7.10;;
35677;SDS011;21791;42.828;74.582;2023-03-05T11:30:20;12.90;;;6.32;;
35677;SDS011;21791;42.828;74.582;2023-03-05T11:35:45;14.13;;;7.13;;
35677;SDS011;21791;42.828;74.582;2023-03-05T11:38:16;14.75;;;7.28;;
35677;SDS011;21791;42.828;74.582;2023-03-05T11:40:49;16.63;;;7.30;;
35677;SDS011;21791;42.828;74.582;2023-03-05T11:43:21;14.90;;;7.57;;
35677;SDS011;21791;42.828;74.582;2023-03-05T11:45:53;16.15;;;7.20;;
35677;SDS011;21791;42.828;74.582;2023-03-05T11:48:34;20.15;;;8.02;;
35677;SDS011;21791;42.828;74.582;2023-03-05T11:51:07;17.85;;;7.90;;
35677;SDS011;21791;42.828;74.582;2023-03-05T11:53:58;20.25;;;7.43;;
35677;SDS011;21791;42.828;74.582;2023-03-05T11:56:33;17.02;;;7.95;;
35677;SDS011;21791;42.828;74.582;2023-03-05T12:01:52;14.63;;;8.50;;
35677;SDS011;21791;42.828;74.582;2023-03-05T12:04:21;29.38;;;14.15;;
35677;SDS011;21791;42.828;74.582;2023-03-05T12:12:11;28.33;;;14.50;;
35677;SDS011;21791;42.828;74.582;2023-03-05T12:14:49;30.70;;;14.43;;
35677;SDS011;21791;42.828;74.582;2023-03-05T12:17:38;24.08;;;14.65;;
35677;SDS011;21791;42.828;74.582;2023-03-05T12:23:14;33.85;;;18.48;;
35677;SDS011;21791;42.828;74.582;2023-03-05T12:25:45;43.08;;;20.00;;
35677;SDS011;21791;42.828;74.582;2023-03-05T12:31:05;30.42;;;16.25;;
35677;SDS011;21791;42.828;74.582;2023-03-05T12:33:50;37.63;;;17.48;;
35677;SDS011;21791;42.828;74.582;2023-03-05T12:38:50;28.20;;;11.55;;
35677;SDS011;21791;42.828;74.582;2023-03-05T12:50:02;21.80;;;11.10;;
35677;SDS011;21791;42.828;74.582;2023-03-05T12:52:04;26.77;;;11.60;;
35677;SDS011;21791;42.828;74.582;2023-03-05T12:54:53;23.75;;;10.73;;
35677;SDS011;21791;42.828;74.582;2023-03-05T12:57:32;24.73;;;10.77;;
35677;SDS011;21791;42.828;74.582;2023-03-05T13:00:44;18.30;;;9.85;;
35677;SDS011;21791;42.828;74.582;2023-03-05T13:02:58;15.50;;;9.75;;
35677;SDS011;21791;42.828;74.582;2023-03-05T13:05:30;19.23;;;8.70;;
35677;SDS011;21791;42.828;74.582;2023-03-05T13:08:26;15.05;;;8.85;;
35677;SDS011;21791;42.828;74.582;2023-03-05T13:11:01;18.40;;;9.13;;
35677;SDS011;21791;42.828;74.582;2023-03-05T13:13:42;21.52;;;9.23;;
35677;SDS011;21791;42.828;74.582;2023-03-05T13:16:21;18.30;;;9.52;;
35677;SDS011;21791;42.828;74.582;2023-03-05T13:18:54;19.50;;;10.20;;
35677;SDS011;21791;42.828;74.582;2023-03-05T13:21:27;14.25;;;9.13;;
35677;SDS011;21791;42.828;74.582;2023-03-05T13:23:55;17.77;;;9.88;;
35677;SDS011;21791;42.828;74.582;2023-03-05T13:26:28;20.67;;;9.50;;
35677;SDS011;21791;42.828;74.582;2023-03-05T13:29:14;22.52;;;9.90;;
35677;SDS011;21791;42.828;74.582;2023-03-05T13:31:45;21.33;;;10.95;;
35677;SDS011;21791;42.828;74.582;2023-03-05T13:34:16;19.08;;;9.95;;
35677;SDS011;21791;42.828;74.582;2023-03-05T13:39:19;20.48;;;10.68;;
35677;SDS011;21791;42.828;74.582;2023-03-05T13:44:28;29.73;;;12.18;;
35677;SDS011;21791;42.828;74.582;2023-03-05T13:47:11;23.88;;;11.32;;
35677;SDS011;21791;42.828;74.582;2023-03-05T13:49:44;22.85;;;11.30;;
35677;SDS011;21791;42.828;74.582;2023-03-05T13:52:24;26.13;;;11.10;;
35677;SDS011;21791;42.828;74.582;2023-03-05T13:54:58;20.33;;;9.43;;
35677;SDS011;21791;42.828;74.582;2023-03-05T14:00:01;25.02;;;9.38;;
35677;SDS011;21791;42.828;74.582;2023-03-05T14:02:29;16.42;;;8.02;;
35677;SDS011;21791;42.828;74.582;2023-03-05T14:04:56;14.95;;;8.20;;
35677;SDS011;21791;42.828;74.582;2023-03-05T14:07:26;21.90;;;8.40;;
35677;SDS011;21791;42.828;74.582;2023-03-05T14:10:26;22.48;;;10.60;;
35677;SDS011;21791;42.828;74.582;2023-03-05T14:12:51;31.38;;;11.52;;
35677;SDS011;21791;42.828;74.582;2023-03-05T14:17:49;18.30;;;8.10;;
35677;SDS011;21791;42.828;74.582;2023-03-05T14:22:51;11.68;;;6.35;;
35677;SDS011;21791;42.828;74.582;2023-03-05T14:27:52;10.05;;;5.55;;
35677;SDS011;21791;42.828;74.582;2023-03-05T14:30:19;11.18;;;5.32;;
35677;SDS011;21791;42.828;74.582;2023-03-05T14:32:48;14.90;;;5.70;;
35677;SDS011;21791;42.828;74.582;2023-03-05T14:35:19;10.13;;;5.50;;
35677;SDS011;21791;42.828;74.582;2023-03-05T14:37:52;13.07;;;5.25;;
35677;SDS011;21791;42.828;74.582;2023-03-05T14:40:22;9.75;;;5.80;;
35677;SDS011;21791;42.828;74.582;2023-03-05T14:42:59;14.90;;;5.68;;
35677;SDS011;21791;42.828;74.582;2023-03-05T14:45:27;12.98;;;5.78;;
35677;SDS011;21791;42.828;74.582;2023-03-05T14:47:57;12.73;;;5.72;;
35677;SDS011;21791;42.828;74.582;2023-03-05T14:50:26;10.60;;;5.40;;
35677;SDS011;21791;42.828;74.582;2023-03-05T14:52:55;15.40;;;5.75;;
35677;SDS011;21791;42.828;74.582;2023-03-05T14:55:26;13.75;;;5.38;;
35677;SDS011;21791;42.828;74.582;2023-03-05T14:58:12;12.82;;;5.82;;
35677;SDS011;21791;42.828;74.582;2023-03-05T15:00:41;13.88;;;5.07;;
35677;SDS011;21791;42.828;74.582;2023-03-05T15:03:09;10.65;;;5.68;;
35677;SDS011;21791;42.828;74.582;2023-03-05T15:05:39;11.35;;;5.97;;
35677;SDS011;21791;42.828;74.582;2023-03-05T15:08:12;10.93;;;5.10;;
35677;SDS011;21791;42.828;74.582;2023-03-05T15:10:43;10.35;;;4.45;;
35677;SDS011;21791;42.828;74.582;2023-03-05T15:13:14;12.45;;;5.40;;
35677;SDS011;21791;42.828;74.582;2023-03-05T15:15:42;9.63;;;4.88;;
35677;SDS011;21791;42.828;74.582;2023-03-05T15:18:11;11.52;;;4.85;;
35677;SDS011;21791;42.828;74.582;2023-03-05T15:20:39;8.40;;;4.78;;
35677;SDS011;21791;42.828;74.582;2023-03-05T15:23:05;13.10;;;4.53;;
35677;SDS011;21791;42.828;74.582;2023-03-05T15:25:32;14.98;;;5.82;;
35677;SDS011;21791;42.828;74.582;2023-03-05T15:27:58;11.40;;;5.60;;
35677;SDS011;21791;42.828;74.582;2023-03-05T15:30:27;13.57;;;5.82;;
35677;SDS011;21791;42.828;74.582;2023-03-05T15:33:00;17.10;;;9.38;;
35677;SDS011;21791;42.828;74.582;2023-03-05T15:35:28;16.33;;;9.98;;
35677;SDS011;21791;42.828;74.582;2023-03-05T15:37:55;17.70;;;9.48;;
35677;SDS011;21791;42.828;74.582;2023-03-05T15:40:22;22.73;;;8.50;;
35677;SDS011;21791;42.828;74.582;2023-03-05T15:42:49;15.30;;;8.63;;
35677;SDS011;21791;42.828;74.582;2023-03-05T15:45:16;19.95;;;9.65;;
35677;SDS011;21791;42.828;74.582;2023-03-05T15:47:43;16.85;;;7.80;;
35677;SDS011;21791;42.828;74.582;2023-03-05T15:50:09;16.05;;;6.28;;
35677;SDS011;21791;42.828;74.582;2023-03-05T15:52:36;12.45;;;6.40;;
35677;SDS011;21791;42.828;74.582;2023-03-05T15:55:03;14.50;;;5.45;;
35677;SDS011;21791;42.828;74.582;2023-03-05T15:57:30;17.50;;;6.22;;
35677;SDS011;21791;42.828;74.582;2023-03-05T16:00:06;11.15;;;5.78;;
35677;SDS011;21791;42.828;74.582;2023-03-05T16:02:34;14.38;;;5.55;;
35677;SDS011;21791;42.828;74.582;2023-03-05T16:05:01;16.67;;;5.75;;
35677;SDS011;21791;42.828;74.582;2023-03-05T16:07:28;12.07;;;5.13;;
35677;SDS011;21791;42.828;74.582;2023-03-05T16:09:55;11.02;;;5.05;;
35677;SDS011;21791;42.828;74.582;2023-03-05T16:12:24;15.95;;;5.13;;
35677;SDS011;21791;42.828;74.582;2023-03-05T16:14:55;12.43;;;4.57;;